Time;durP1;ratioP1;P1;durP2;ratioP2;P2;SDS_P1;SDS_P2;PMS_P1;PMS_P2;Temp;Humidity;BMP_temperature;BMP_pressure;BME280_temperature;BME280_humidity;BME280_pressure;Samples;Min_cycle;Max_cycle;Signal;HPM_P1;HPM_P2
2022/08/11 00:00:12;;;;;;;1.87;1.77;;;17.10;94.60;;;;;;4974488;28;21281;-68
2022/08/11 00:02:42;;;;;;;2.20;2.00;;;17.10;94.70;;;;;;4974467;28;20464;-66
2022/08/11 00:05:12;;;;;;;1.87;1.67;;;17.00;94.70;;;;;;4974005;28;20471;-69
2022/08/11 00:07:44;;;;;;;2.27;1.90;;;17.00;94.80;;;;;;4973919;28;20511;-68
2022/08/11 00:10:13;;;;;;;2.20;1.93;;;16.90;94.80;;;;;;4974345;28;20460;-68
2022/08/11 00:12:42;;;;;;;3.07;1.87;;;16.90;95.00;;;;;;4973864;28;20471;-68
2022/08/11 00:15:10;;;;;;;1.57;1.47;;;16.80;95.20;;;;;;4973687;28;20491;-69
2022/08/11 00:17:38;;;;;;;1.87;1.77;;;16.80;95.30;;;;;;4973825;28;20487;-68
2022/08/11 00:20:08;;;;;;;1.73;1.63;;;16.70;95.20;;;;;;4974068;28;20513;-68
2022/08/11 00:22:38;;;;;;;2.40;2.20;;;16.70;95.20;;;;;;4973960;28;20559;-68
2022/08/11 00:25:11;;;;;;;1.70;1.60;;;16.70;95.10;;;;;;4973572;28;20463;-68
2022/08/11 00:27:40;;;;;;;1.93;1.83;;;16.60;95.40;;;;;;4973722;28;20489;-67
2022/08/11 00:30:09;;;;;;;2.97;1.83;;;16.60;95.50;;;;;;4973778;28;20530;-68
2022/08/11 00:32:38;;;;;;;2.43;2.23;;;16.60;95.40;;;;;;4973921;28;20844;-68
2022/08/11 00:35:08;;;;;;;1.97;1.80;;;16.60;95.60;;;;;;4973353;28;20523;-69
2022/08/11 00:37:35;;;;;;;1.97;1.87;;;16.50;95.50;;;;;;4973841;28;20492;-68
2022/08/11 00:40:06;;;;;;;2.67;2.20;;;16.50;95.50;;;;;;4973375;28;20495;-68
2022/08/11 00:42:46;;;;;;;2.23;1.90;;;16.50;95.60;;;;;;4973817;28;20464;-68
2022/08/11 00:45:23;;;;;;;2.33;2.13;;;16.50;95.80;;;;;;4972833;28;20550;-68
2022/08/11 00:48:01;;;;;;;2.07;1.87;;;16.50;96.20;;;;;;4973451;28;20483;-67
2022/08/11 00:50:40;;;;;;;1.80;1.70;;;16.40;95.90;;;;;;4973345;28;20455;-68
2022/08/11 00:53:32;;;;;;;1.80;1.70;;;16.40;96.00;;;;;;4973507;28;20471;-68
2022/08/11 00:56:23;;;;;;;2.00;1.80;;;16.40;96.20;;;;;;4973184;28;20878;-68
2022/08/11 00:59:35;;;;;;;1.70;1.60;;;16.40;96.00;;;;;;4973208;28;20534;-67
2022/08/11 01:02:13;;;;;;;2.53;2.20;;;16.40;95.90;;;;;;4972316;28;20466;-67
2022/08/11 01:05:04;;;;;;;2.40;1.97;;;16.40;95.70;;;;;;4972628;28;20990;-68
2022/08/11 01:08:11;;;;;;;2.13;1.70;;;16.40;95.90;;;;;;4973032;28;20510;-68
2022/08/11 01:11:07;;;;;;;1.90;1.70;;;16.40;95.90;;;;;;4938406;28;20958;-68
2022/08/11 01:14:12;;;;;;;1.90;1.70;;;16.30;95.90;;;;;;4965640;28;20947;-67
2022/08/11 01:17:10;;;;;;;2.10;1.90;;;16.30;95.80;;;;;;4937907;28;20492;-68
2022/08/11 01:20:07;;;;;;;2.27;2.07;;;16.30;95.70;;;;;;4972868;28;20523;-68
2022/08/11 01:23:09;;;;;;;3.77;2.30;;;16.30;95.90;;;;;;4972674;28;20966;-67
2022/08/11 01:26:08;;;;;;;1.93;1.83;;;16.30;95.90;;;;;;4972250;28;20455;-68
2022/08/11 01:29:17;;;;;;;2.07;1.87;;;16.20;96.10;;;;;;4967269;28;20471;-67
2022/08/11 01:32:14;;;;;;;1.93;1.83;;;16.20;96.10;;;;;;4972640;28;20510;-68
2022/08/11 01:35:25;;;;;;;2.33;2.13;;;16.10;96.00;;;;;;4971919;28;20467;-68
2022/08/11 01:38:38;;;;;;;1.80;1.57;;;16.10;96.10;;;;;;4972410;28;20479;-68
2022/08/11 01:45:02;;;;;;;1.90;1.80;;;16.10;96.30;;;;;;4971817;28;20463;-67
2022/08/11 01:47:52;;;;;;;1.90;1.70;;;16.10;96.40;;;;;;4963260;28;20530;-68
2022/08/11 01:50:45;;;;;;;2.40;2.20;;;16.00;96.40;;;;;;4972280;28;20826;-68
2022/08/11 01:53:24;;;;;;;2.37;1.90;;;16.10;96.40;;;;;;4972313;28;20570;-66
2022/08/11 01:56:01;;;;;;;1.70;1.60;;;16.00;96.40;;;;;;4972141;28;20475;-67
2022/08/11 01:58:36;;;;;;;2.80;2.10;;;16.00;96.40;;;;;;4972186;28;20526;-68
2022/08/11 02:01:20;;;;;;;1.90;1.80;;;16.00;96.50;;;;;;4971986;28;20494;-68
2022/08/11 02:03:53;;;;;;;2.83;1.93;;;16.00;96.50;;;;;;4971601;28;20459;-68
2022/08/11 02:09:24;;;;;;;2.30;2.10;;;15.90;96.40;;;;;;4972234;28;21031;-68
2022/08/11 02:11:55;;;;;;;2.47;2.00;;;15.90;96.60;;;;;;4971622;28;21026;-68
2022/08/11 02:14:28;;;;;;;2.30;2.03;;;15.90;96.60;;;;;;4971753;28;20499;-66
2022/08/11 02:17:18;;;;;;;2.30;2.10;;;15.80;96.70;;;;;;4971919;28;20991;-68
2022/08/11 02:25:38;;;;;;;2.23;2.03;;;15.70;96.80;;;;;;4971363;28;20451;-68
2022/08/11 02:28:12;;;;;;;2.37;2.17;;;15.70;97.00;;;;;;4971488;28;21003;-66
2022/08/11 02:33:21;;;;;;;2.30;2.10;;;15.70;97.10;;;;;;4971685;28;20534;-66
2022/08/11 02:33:36;;;;;;;2.80;2.50;;;15.70;97.10;;;;;;4970874;28;20460;-67
2022/08/11 02:36:08;;;;;;;2.50;2.10;;;15.70;97.30;;;;;;4971792;28;20463;-68
2022/08/11 02:38:46;;;;;;;2.47;2.27;;;15.60;97.20;;;;;;4971611;28;20467;-67
2022/08/11 02:44:21;;;;;;;2.20;2.00;;;15.60;97.40;;;;;;4971448;28;20535;-68
2022/08/11 02:46:56;;;;;;;2.10;1.90;;;15.60;97.70;;;;;;4971432;28;20483;-67
2022/08/11 02:49:54;;;;;;;2.17;1.90;;;15.60;97.70;;;;;;4971701;28;20467;-68
2022/08/11 02:52:30;;;;;;;2.90;2.60;;;15.60;97.80;;;;;;4971597;28;20501;-68
2022/08/11 02:55:19;;;;;;;2.90;2.40;;;15.50;97.60;;;;;;4971126;28;20471;-68
2022/08/11 02:57:52;;;;;;;2.03;1.93;;;15.50;97.80;;;;;;4971404;28;20492;-68
2022/08/11 03:00:19;;;;;;;2.57;2.10;;;15.50;97.90;;;;;;4971524;28;20519;-66
2022/08/11 03:03:07;;;;;;;2.20;2.00;;;15.50;97.90;;;;;;4971314;28;20483;-68
2022/08/11 03:05:48;;;;;;;1.90;1.70;;;15.40;97.90;;;;;;4970929;28;21006;-68
2022/08/11 03:08:35;;;;;;;2.47;2.27;;;15.40;98.10;;;;;;4971366;28;20570;-67
2022/08/11 03:17:00;;;;;;;5.97;2.87;;;15.30;98.10;;;;;;4971413;28;21079;-67
2022/08/11 03:19:36;;;;;;;1.83;1.73;;;15.40;98.40;;;;;;4971360;28;20866;-67
2022/08/11 03:22:12;;;;;;;2.50;2.30;;;15.40;98.60;;;;;;4971463;28;20463;-68
2022/08/11 03:24:57;;;;;;;2.43;2.23;;;15.40;98.30;;;;;;4972163;28;20947;-67
2022/08/11 03:27:37;;;;;;;4.50;2.57;;;15.30;98.00;;;;;;4975026;28;20487;-67
2022/08/11 03:30:13;;;;;;;2.47;2.27;;;15.40;98.20;;;;;;4974923;28;20522;-67
2022/08/11 03:34:00;;;;;;;3.03;2.83;;;15.30;98.20;;;;;;4974897;28;20478;-67
2022/08/11 03:35:44;;;;;;;3.10;2.73;;;15.30;98.30;;;;;;4994788;23;20498;-69
2022/08/11 03:38:15;;;;;;;2.87;2.57;;;15.30;98.40;;;;;;5013771;28;20509;-68
2022/08/11 03:44:03;;;;;;;2.67;2.17;;;15.30;98.40;;;;;;5013704;28;20531;-68
2022/08/11 03:46:53;;;;;;;2.63;2.43;;;15.20;98.30;;;;;;5013756;28;20485;-69
2022/08/11 03:49:30;;;;;;;2.40;2.03;;;15.20;98.40;;;;;;5013706;28;20469;-68
2022/08/11 03:52:08;;;;;;;2.37;2.20;;;15.20;98.60;;;;;;5013724;28;20520;-67
2022/08/11 03:54:49;;;;;;;2.33;2.10;;;15.20;98.80;;;;;;5012750;28;20457;-68
2022/08/11 03:57:50;;;;;;;2.77;2.57;;;15.10;98.80;;;;;;5013241;28;20481;-68
2022/08/11 04:00:43;;;;;;;2.23;2.03;;;15.10;98.90;;;;;;4961099;28;20481;-69
2022/08/11 04:03:42;;;;;;;2.50;2.30;;;15.00;99.00;;;;;;5013329;28;20466;-68
2022/08/11 04:06:48;;;;;;;2.70;2.50;;;15.00;99.30;;;;;;5013527;28;20466;-68
2022/08/11 04:09:58;;;;;;;2.90;2.70;;;15.00;99.30;;;;;;5013144;28;20480;-69
2022/08/11 04:12:44;;;;;;;2.37;2.17;;;15.00;99.40;;;;;;5013079;28;20466;-68
2022/08/11 04:18:58;;;;;;;2.70;2.50;;;14.90;99.30;;;;;;5012784;28;21019;-69
2022/08/11 04:21:59;;;;;;;2.60;2.40;;;14.90;99.30;;;;;;5000840;28;20478;-69
2022/08/11 04:25:10;;;;;;;2.40;2.20;;;14.90;99.40;;;;;;5012233;28;20492;-68
2022/08/11 04:28:01;;;;;;;3.10;2.80;;;14.90;99.50;;;;;;5012779;28;21238;-68
2022/08/11 04:30:46;;;;;;;3.40;2.90;;;14.90;99.60;;;;;;5013054;28;20469;-68
2022/08/11 04:33:38;;;;;;;3.40;3.10;;;14.90;99.60;;;;;;5012526;28;20899;-69
2022/08/11 04:39:33;;;;;;;2.87;2.53;;;14.90;99.90;;;;;;5011427;28;20797;-68
2022/08/11 04:45:45;;;;;;;2.67;2.47;;;14.80;99.90;;;;;;5012103;28;20437;-69
2022/08/11 05:03:53;;;;;;;2.60;2.40;;;15.00;99.90;;;;;;5012044;28;20453;-67
2022/08/11 05:06:43;;;;;;;4.60;2.73;;;15.10;99.90;;;;;;5011869;28;20540;-68
2022/08/11 05:09:42;;;;;;;2.80;2.60;;;15.10;99.90;;;;;;5012098;28;20898;-68
2022/08/11 05:12:24;;;;;;;2.60;2.40;;;15.20;99.90;;;;;;4995433;28;20454;-69
2022/08/11 05:34:53;;;;;;;2.60;2.20;;;15.50;99.90;;;;;;5010745;28;20577;-67
2022/08/11 05:37:25;;;;;;;2.50;2.30;;;15.60;99.90;;;;;;5011250;28;20525;-68
2022/08/11 05:56:44;;;;;;;2.60;2.40;;;16.30;99.90;;;;;;5010087;28;20468;-65
2022/08/11 05:59:16;;;;;;;3.10;2.80;;;16.50;99.90;;;;;;5009067;28;20497;-65
2022/08/11 06:01:44;;;;;;;3.10;2.80;;;16.60;99.60;;;;;;5007439;28;20482;-66
2022/08/11 06:04:17;;;;;;;2.70;2.50;;;16.80;99.40;;;;;;5008943;28;20508;-66
2022/08/11 06:06:53;;;;;;;3.10;2.80;;;17.00;99.30;;;;;;5007215;28;21016;-66
2022/08/11 06:09:29;;;;;;;2.87;2.67;;;17.20;98.80;;;;;;5006517;28;20553;-67
2022/08/11 06:11:59;;;;;;;3.47;2.57;;;17.40;97.90;;;;;;5008333;28;20537;-66
2022/08/11 06:14:26;;;;;;;2.77;2.57;;;17.50;97.70;;;;;;5009904;28;20457;-66
2022/08/11 06:16:57;;;;;;;2.77;2.57;;;17.70;97.30;;;;;;5010387;28;20486;-66
2022/08/11 06:19:32;;;;;;;3.70;2.97;;;17.90;97.60;;;;;;5010637;28;20517;-66
2022/08/11 06:22:02;;;;;;;2.90;2.70;;;18.00;97.20;;;;;;5010867;28;20489;-66
2022/08/11 06:24:31;;;;;;;2.67;2.43;;;18.10;96.70;;;;;;5010108;28;20471;-66
2022/08/11 06:26:58;;;;;;;2.60;2.40;;;18.20;96.80;;;;;;5010350;28;20518;-66
2022/08/11 06:29:26;;;;;;;4.57;2.60;;;18.40;96.90;;;;;;5010036;28;20468;-66
2022/08/11 06:31:56;;;;;;;3.20;2.90;;;18.60;96.30;;;;;;5010650;28;20465;-67
2022/08/11 06:34:35;;;;;;;2.90;2.70;;;18.70;95.50;;;;;;5003301;28;21398;-66
2022/08/11 06:37:21;;;;;;;4.03;2.53;;;18.80;95.90;;;;;;5008785;28;20580;-66
2022/08/11 06:39:57;;;;;;;2.80;2.30;;;18.90;95.70;;;;;;5010138;28;20539;-67
2022/08/11 06:42:38;;;;;;;3.43;2.83;;;19.00;95.40;;;;;;5009498;28;20449;-67
2022/08/11 06:45:12;;;;;;;3.03;2.73;;;19.10;95.70;;;;;;5008798;28;20843;-67
2022/08/11 06:47:46;;;;;;;3.73;3.10;;;19.20;95.30;;;;;;5009786;28;20489;-67
2022/08/11 06:53:05;;;;;;;4.53;3.13;;;19.30;95.10;;;;;;5010135;28;20449;-67
2022/08/11 07:01:12;;;;;;;2.53;2.33;;;19.60;95.10;;;;;;5012586;28;20480;-68
2022/08/11 07:03:44;;;;;;;3.13;2.83;;;19.60;94.80;;;;;;5013107;28;20462;-68
2022/08/11 07:06:29;;;;;;;4.10;2.60;;;19.70;95.10;;;;;;5012640;28;20520;-69
2022/08/11 07:15:43;;;;;;;3.23;2.83;;;20.10;94.30;;;;;;5012568;28;20552;-68
2022/08/11 07:29:32;;;;;;;2.80;2.60;;;20.50;94.00;;;;;;5013366;28;20445;-69
2022/08/11 07:32:08;;;;;;;3.00;2.57;;;20.60;94.30;;;;;;5012432;28;20465;-68
2022/08/11 07:34:37;;;;;;;2.63;2.43;;;20.70;93.90;;;;;;5012749;28;21112;-69
2022/08/11 07:37:11;;;;;;;2.53;2.33;;;20.80;93.70;;;;;;5010388;28;20489;-68
2022/08/11 07:39:39;;;;;;;3.20;2.73;;;20.90;94.20;;;;;;5013351;28;20942;-67
2022/08/11 07:42:10;;;;;;;3.23;2.73;;;21.00;93.80;;;;;;5012622;28;20489;-66
2022/08/11 07:48:10;;;;;;;2.90;2.70;;;21.20;93.50;;;;;;4999066;28;20862;-66
2022/08/11 07:52:57;;;;;;;2.60;2.40;;;21.50;93.50;;;;;;5012603;28;20453;-67
2022/08/11 07:55:26;;;;;;;3.10;2.80;;;21.60;93.20;;;;;;5011562;28;20760;-67
2022/08/11 08:20:03;;;;;;;2.37;2.20;;;22.70;92.10;;;;;;4990210;28;20716;-69
2022/08/11 08:22:30;;;;;;;2.50;2.30;;;22.90;92.40;;;;;;4992246;28;20579;-69
2022/08/11 08:24:57;;;;;;;3.20;2.90;;;23.00;91.30;;;;;;4991685;28;20474;-68
2022/08/11 08:27:26;;;;;;;4.40;2.90;;;23.00;91.10;;;;;;4992619;28;20497;-69
2022/08/11 08:32:46;;;;;;;2.47;2.27;;;23.20;91.10;;;;;;4957003;28;20555;-69
2022/08/11 08:35:14;;;;;;;3.00;2.33;;;23.30;90.50;;;;;;4992186;28;20469;-69
2022/08/11 08:37:41;;;;;;;2.93;2.63;;;23.40;90.40;;;;;;4992324;28;20474;-69
2022/08/11 08:40:09;;;;;;;2.57;2.37;;;23.50;91.50;;;;;;4992253;28;20972;-68
2022/08/11 08:42:41;;;;;;;3.37;2.70;;;23.60;89.70;;;;;;4992614;28;20489;-69
2022/08/11 08:45:13;;;;;;;2.77;2.57;;;23.70;90.90;;;;;;4991744;28;20472;-69
2022/08/11 08:47:43;;;;;;;2.67;2.47;;;23.80;90.90;;;;;;4992430;28;20557;-69
2022/08/11 08:50:13;;;;;;;2.50;2.30;;;24.00;91.00;;;;;;4991541;28;20469;-69
2022/08/11 08:52:47;;;;;;;2.40;2.20;;;24.10;91.10;;;;;;4992436;28;20496;-69
2022/08/11 08:55:18;;;;;;;2.80;2.47;;;24.20;89.90;;;;;;4991287;28;21433;-69
2022/08/11 08:57:48;;;;;;;3.07;2.70;;;24.30;90.30;;;;;;4992658;28;20482;-69
2022/08/11 09:00:17;;;;;;;2.57;2.37;;;24.40;90.20;;;;;;4991792;28;20542;-69
2022/08/11 09:02:45;;;;;;;2.57;2.37;;;24.50;89.40;;;;;;4991535;28;20500;-69
2022/08/11 09:05:12;;;;;;;4.00;2.93;;;24.60;90.40;;;;;;4991405;28;20957;-69
2022/08/11 09:07:39;;;;;;;2.50;2.30;;;24.70;90.20;;;;;;4992180;28;20577;-69
2022/08/11 09:10:10;;;;;;;2.40;2.20;;;24.80;86.20;;;;;;4991653;28;20466;-69
2022/08/11 09:12:40;;;;;;;2.27;2.10;;;24.90;85.70;;;;;;4991849;28;20468;-69
2022/08/11 09:15:10;;;;;;;2.80;2.30;;;24.90;85.50;;;;;;4990910;28;20466;-69
2022/08/11 09:17:41;;;;;;;2.60;2.40;;;24.90;89.40;;;;;;4991478;28;20491;-69
2022/08/11 09:20:11;;;;;;;2.37;2.17;;;25.10;89.40;;;;;;4991780;28;20474;-69
2022/08/11 09:28:23;;;;;;;2.80;2.60;;;25.30;84.00;;;;;;4931148;29;20469;-69
2022/08/11 09:30:53;;;;;;;2.23;2.03;;;25.30;89.80;;;;;;4977529;28;20525;-69
2022/08/11 09:33:24;;;;;;;2.50;2.13;;;25.50;87.30;;;;;;4997978;28;20460;-69
2022/08/11 09:35:52;;;;;;;2.43;2.23;;;25.50;84.50;;;;;;5006191;28;21074;-69
2022/08/11 09:41:08;;;;;;;2.90;2.60;;;25.60;85.90;;;;;;5007442;28;20489;-69
2022/08/11 09:46:35;;;;;;;2.30;2.07;;;26.00;89.10;;;;;;4947472;29;20494;-69
2022/08/11 09:49:05;;;;;;;2.07;1.97;;;26.20;86.10;;;;;;4994137;28;20460;-69
2022/08/11 09:51:33;;;;;;;2.50;2.30;;;26.30;84.40;;;;;;5008725;28;20466;-69
2022/08/11 09:54:05;;;;;;;2.47;2.27;;;26.30;83.20;;;;;;5009869;28;20469;-69
2022/08/11 09:59:19;;;;;;;2.47;2.27;;;26.20;80.90;;;;;;5010285;28;20540;-69
2022/08/11 10:01:49;;;;;;;2.83;2.63;;;26.30;84.20;;;;;;5010272;28;20500;-69
2022/08/11 10:04:22;;;;;;;2.53;2.33;;;26.40;84.00;;;;;;5008853;28;20484;-69
2022/08/11 10:07:05;;;;;;;2.47;2.27;;;26.50;82.80;;;;;;5010005;28;20477;-69
2022/08/11 10:09:39;;;;;;;2.40;2.20;;;26.40;81.70;;;;;;5007460;28;20474;-69
2022/08/11 10:12:09;;;;;;;3.27;2.43;;;26.40;85.00;;;;;;5010306;28;20465;-69
2022/08/11 10:17:26;;;;;;;2.30;2.10;;;26.30;83.10;;;;;;5010261;28;20473;-69
2022/08/11 10:19:57;;;;;;;2.50;2.30;;;26.10;83.20;;;;;;5010104;28;20473;-69
2022/08/11 10:27:57;;;;;;;4.03;2.73;;;26.70;85.10;;;;;;5009608;28;20519;-69
2022/08/11 10:35:52;;;;;;;2.70;2.50;;;27.20;81.40;;;;;;4977334;28;20497;-69
2022/08/11 10:38:19;;;;;;;2.27;2.10;;;27.40;83.20;;;;;;5009068;28;20593;-69
2022/08/11 10:43:01;;;;;;;2.90;2.60;;;27.60;82.60;;;;;;5009914;28;20468;-69
2022/08/11 10:43:39;;;;;;;3.60;2.33;;;27.80;81.50;;;;;;5008860;28;20454;-69
2022/08/11 10:48:54;;;;;;;1.70;1.60;;;28.00;78.60;;;;;;5009965;28;20445;-69
2022/08/11 10:59:41;;;;;;;2.27;2.03;;;27.40;75.40;;;;;;5010106;28;21005;-69
2022/08/11 11:02:12;;;;;;;2.67;2.47;;;27.40;77.50;;;;;;5009282;28;20572;-69
2022/08/11 11:04:52;;;;;;;2.33;2.13;;;27.40;76.80;;;;;;5009464;28;20906;-68
2022/08/11 11:07:23;;;;;;;2.10;1.90;;;27.50;75.30;;;;;;5008988;28;21124;-68
2022/08/11 11:09:54;;;;;;;2.53;2.33;;;27.70;76.80;;;;;;5009599;28;20510;-68
2022/08/11 11:18:08;;;;;;;2.20;2.00;;;28.00;76.60;;;;;;4984164;28;20473;-68
2022/08/11 11:20:40;;;;;;;2.30;2.10;;;28.20;77.50;;;;;;5009499;28;20536;-68
2022/08/11 11:23:15;;;;;;;2.00;1.80;;;28.40;77.50;;;;;;5009331;28;20481;-68
2022/08/11 11:26:09;;;;;;;2.23;2.03;;;28.70;76.80;;;;;;5008957;28;20487;-69
2022/08/11 11:29:11;;;;;;;2.33;2.10;;;28.80;76.00;;;;;;5008937;28;20489;-68
2022/08/11 11:31:54;;;;;;;2.57;2.37;;;28.90;78.80;;;;;;4972134;28;20458;-68
2022/08/11 11:34:51;;;;;;;2.37;2.17;;;29.10;79.20;;;;;;5008482;28;20469;-69
2022/08/11 11:37:18;;;;;;;2.70;2.33;;;29.20;77.20;;;;;;5008224;28;20604;-69
2022/08/11 11:39:47;;;;;;;2.20;2.00;;;29.30;75.80;;;;;;5009211;28;20458;-68
2022/08/11 11:42:16;;;;;;;2.90;2.00;;;29.30;73.90;;;;;;5008581;28;20544;-69
2022/08/11 11:44:45;;;;;;;2.50;2.30;;;29.20;74.40;;;;;;5009155;28;20470;-68
2022/08/11 11:47:13;;;;;;;3.57;2.10;;;29.20;73.50;;;;;;5010737;28;20492;-68
2022/08/11 11:49:43;;;;;;;2.30;2.10;;;29.10;70.70;;;;;;5011263;28;20458;-68
2022/08/11 11:52:16;;;;;;;2.23;2.00;;;29.10;75.30;;;;;;5011110;28;20449;-67
2022/08/11 11:54:43;;;;;;;2.27;2.07;;;29.20;75.80;;;;;;5011893;28;20877;-68
2022/08/11 12:02:44;;;;;;;1.50;1.40;;;29.40;72.90;;;;;;5012787;28;20480;-68
2022/08/11 12:05:13;;;;;;;1.77;1.67;;;29.40;73.10;;;;;;5011677;28;20465;-68
2022/08/11 12:10:26;;;;;;;2.27;2.07;;;29.50;72.40;;;;;;5013125;28;20937;-68
2022/08/11 12:15:38;;;;;;;1.97;1.87;;;29.80;74.00;;;;;;5012350;28;21133;-68
2022/08/11 12:18:05;;;;;;;1.90;1.80;;;29.80;71.10;;;;;;5009505;28;20497;-68
2022/08/11 12:20:33;;;;;;;2.00;1.90;;;29.80;72.80;;;;;;5011762;28;20476;-68
2022/08/11 12:28:31;;;;;;;2.07;1.87;;;29.90;74.30;;;;;;5012452;28;20457;-68
2022/08/11 12:30:58;;;;;;;2.40;2.10;;;30.00;73.20;;;;;;5011644;28;20466;-69
2022/08/11 12:33:25;;;;;;;2.13;2.03;;;30.00;67.40;;;;;;5012072;28;20536;-68
2022/08/11 12:35:58;;;;;;;2.10;1.90;;;29.80;68.80;;;;;;5010138;28;20474;-69
2022/08/11 12:38:26;;;;;;;2.07;1.80;;;29.70;67.50;;;;;;5011933;28;20489;-68
2022/08/11 12:46:33;;;;;;;2.87;2.17;;;29.30;70.60;;;;;;5009870;28;20491;-69
2022/08/11 12:51:57;;;;;;;2.00;1.80;;;29.60;73.30;;;;;;5012554;28;20513;-69
2022/08/11 12:54:28;;;;;;;3.17;2.37;;;29.90;72.80;;;;;;5010663;28;20617;-68
2022/08/11 13:05:18;;;;;;;3.00;2.20;;;30.40;70.10;;;;;;5011448;28;20449;-68
2022/08/11 13:07:46;;;;;;;1.83;1.73;;;30.50;71.40;;;;;;5005639;28;20482;-68
2022/08/11 13:12:46;;;;;;;2.10;1.90;;;30.50;71.70;;;;;;5011041;28;20477;-68
2022/08/11 13:13:03;;;;;;;2.30;2.10;;;30.60;71.60;;;;;;5010406;28;20477;-69
2022/08/11 13:15:32;;;;;;;1.80;1.70;;;30.70;70.00;;;;;;5010392;28;20461;-69
2022/08/11 13:18:00;;;;;;;2.00;1.87;;;30.70;69.00;;;;;;5008595;28;20876;-68
2022/08/11 13:20:27;;;;;;;2.10;1.90;;;30.70;70.50;;;;;;5010861;28;20458;-69
2022/08/11 13:22:56;;;;;;;2.00;1.70;;;30.80;69.40;;;;;;5010608;28;20489;-69
2022/08/11 13:25:26;;;;;;;2.50;2.30;;;30.70;67.40;;;;;;5009684;28;21258;-68
2022/08/11 13:27:56;;;;;;;1.67;1.57;;;30.70;67.80;;;;;;5009996;28;20482;-71
2022/08/11 13:33:11;;;;;;;2.20;1.77;;;30.60;66.40;;;;;;5010307;28;20952;-68
2022/08/11 13:35:39;;;;;;;1.70;1.60;;;30.60;67.90;;;;;;5010198;28;20473;-68
2022/08/11 13:38:10;;;;;;;2.40;2.20;;;30.50;69.00;;;;;;5009149;28;21003;-68
2022/08/11 13:40:37;;;;;;;1.83;1.73;;;30.50;67.90;;;;;;5010600;28;20466;-68
2022/08/11 13:43:05;;;;;;;1.90;1.80;;;30.40;68.60;;;;;;5009691;28;20490;-68
2022/08/11 13:45:33;;;;;;;2.40;2.20;;;30.50;69.60;;;;;;5010010;28;20493;-69
2022/08/11 13:48:01;;;;;;;2.00;1.90;;;30.50;72.10;;;;;;5009338;28;20896;-69
2022/08/11 13:53:11;;;;;;;2.23;1.73;;;30.70;69.80;;;;;;5008558;28;20821;-70
2022/08/11 13:55:39;;;;;;;3.13;1.93;;;30.80;69.30;;;;;;5009637;28;21055;-70
2022/08/11 13:58:09;;;;;;;2.07;1.70;;;30.90;68.90;;;;;;5009470;28;20540;-70
2022/08/11 14:00:36;;;;;;;1.90;1.70;;;30.90;69.60;;;;;;5010055;28;20462;-70
2022/08/11 14:03:10;;;;;;;1.60;1.50;;;30.70;66.10;;;;;;5009903;28;20493;-70
2022/08/11 14:05:42;;;;;;;2.00;1.80;;;30.70;68.60;;;;;;5009665;28;20465;-70
2022/08/11 14:08:13;;;;;;;2.00;1.77;;;30.60;70.20;;;;;;5007769;28;20600;-70
2022/08/11 14:10:40;;;;;;;2.23;1.77;;;30.60;68.20;;;;;;5010417;28;20466;-69
2022/08/11 14:16:00;;;;;;;1.80;1.70;;;30.60;70.00;;;;;;5009676;28;20453;-70
2022/08/11 14:18:30;;;;;;;2.07;1.70;;;30.50;68.40;;;;;;5008970;28;20497;-70
2022/08/11 14:23:49;;;;;;;2.07;1.53;;;30.60;68.80;;;;;;5008872;28;20991;-69
2022/08/11 14:26:25;;;;;;;2.43;2.20;;;30.60;65.90;;;;;;5009502;28;20461;-69
2022/08/11 14:28:53;;;;;;;2.90;1.87;;;30.50;64.70;;;;;;5009456;28;20461;-69
2022/08/11 14:31:22;;;;;;;2.10;1.90;;;30.40;67.30;;;;;;5009290;28;20972;-69
2022/08/11 14:33:49;;;;;;;2.20;2.00;;;30.30;69.10;;;;;;5009660;28;20485;-70
2022/08/11 14:36:17;;;;;;;1.70;1.60;;;30.20;67.20;;;;;;5008776;28;20474;-69
2022/08/11 14:38:44;;;;;;;1.63;1.53;;;30.20;69.30;;;;;;5103197;22;20569;-72
2022/08/11 14:49:28;;;;;;;2.03;1.93;;;30.10;68.40;;;;;;5009362;28;20485;-71
2022/08/11 14:51:57;;;;;;;2.00;1.90;;;30.20;66.50;;;;;;5009532;28;20476;-72
2022/08/11 14:57:12;;;;;;;1.73;1.63;;;30.20;65.50;;;;;;5009020;28;20600;-72
2022/08/11 14:59:40;;;;;;;2.10;1.90;;;30.20;68.70;;;;;;5008946;28;20466;-71
2022/08/11 15:04:48;;;;;;;2.13;1.93;;;30.20;64.60;;;;;;4975409;28;20495;-71
2022/08/11 15:07:17;;;;;;;2.70;2.00;;;30.10;66.30;;;;;;5008249;28;20508;-71
2022/08/11 15:09:45;;;;;;;1.63;1.53;;;30.10;65.20;;;;;;5008667;28;20469;-71
2022/08/11 15:12:17;;;;;;;1.93;1.67;;;30.10;67.10;;;;;;5008672;28;20547;-71
2022/08/11 15:17:32;;;;;;;2.00;1.80;;;30.00;67.70;;;;;;5008796;28;20508;-72
2022/08/11 15:25:33;;;;;;;1.80;1.70;;;30.00;68.00;;;;;;4993488;28;20816;-71
2022/08/11 15:47:33;;;;;;;2.40;2.10;;;29.90;64.40;;;;;;4994128;28;20475;-71
2022/08/11 15:50:04;;;;;;;1.93;1.77;;;29.80;65.80;;;;;;4994118;28;20459;-71
2022/08/11 15:52:36;;;;;;;1.50;1.40;;;29.80;66.40;;;;;;4994274;28;20454;-71
2022/08/11 15:55:07;;;;;;;2.83;2.00;;;29.80;65.70;;;;;;4993484;28;20846;-71
2022/08/11 16:05:52;;;;;;;2.70;1.87;;;29.50;67.10;;;;;;4994019;28;20489;-71
2022/08/11 16:08:24;;;;;;;2.00;1.80;;;29.40;63.90;;;;;;4993750;28;20486;-71
2022/08/11 16:10:52;;;;;;;1.70;1.60;;;29.40;63.80;;;;;;4993963;28;20498;-71
2022/08/11 16:16:17;;;;;;;1.90;1.67;;;29.20;65.60;;;;;;4993898;28;20563;-72
2022/08/11 16:18:50;;;;;;;2.00;1.90;;;29.20;67.10;;;;;;4993820;28;20494;-71
2022/08/11 16:21:22;;;;;;;2.37;1.80;;;29.10;66.70;;;;;;4993714;28;20465;-71
2022/08/11 16:23:51;;;;;;;2.13;1.93;;;29.20;66.10;;;;;;4993063;28;20500;-71
2022/08/11 16:26:22;;;;;;;2.03;1.83;;;29.10;66.30;;;;;;4993718;28;20493;-71
2022/08/11 16:28:51;;;;;;;2.40;1.90;;;29.00;67.20;;;;;;4993512;28;20502;-69
2022/08/11 16:31:20;;;;;;;2.30;1.77;;;29.00;67.20;;;;;;4993384;28;20459;-71
2022/08/11 16:33:48;;;;;;;2.10;1.90;;;29.00;66.60;;;;;;4992904;28;20878;-69
2022/08/11 16:39:02;;;;;;;1.70;1.60;;;28.80;66.00;;;;;;4993169;28;20442;-70
2022/08/11 16:47:05;;;;;;;1.83;1.73;;;28.50;66.50;;;;;;4993199;28;20602;-69
2022/08/11 16:49:34;;;;;;;3.20;2.13;;;28.40;66.80;;;;;;4992996;28;20537;-70
2022/08/11 16:52:04;;;;;;;2.37;1.90;;;28.40;68.20;;;;;;4992932;28;20467;-69
2022/08/11 16:54:32;;;;;;;2.47;1.70;;;28.40;68.80;;;;;;4992544;28;20537;-70
2022/08/11 16:59:12;;;;;;;1.90;1.77;;;28.40;68.70;;;;;;4992870;28;20518;-70
2022/08/11 16:59:50;;;;;;;1.63;1.53;;;28.30;67.40;;;;;;4992797;28;20455;-70
2022/08/11 17:13:33;;;;;;;1.70;1.60;;;28.10;70.60;;;;;;4992243;28;20438;-69
2022/08/11 17:16:07;;;;;;;1.97;1.87;;;28.00;70.10;;;;;;4992367;28;20835;-70
2022/08/11 17:18:42;;;;;;;2.30;1.90;;;28.00;68.30;;;;;;4992542;28;20806;-70
2022/08/11 17:21:12;;;;;;;2.23;2.03;;;27.80;68.40;;;;;;4992255;28;20466;-70
2022/08/11 17:23:49;;;;;;;1.93;1.83;;;27.80;68.60;;;;;;4992056;28;20594;-70
2022/08/11 17:26:19;;;;;;;1.70;1.60;;;27.70;68.50;;;;;;4992035;28;20660;-70
2022/08/11 17:28:50;;;;;;;1.90;1.80;;;27.70;67.00;;;;;;4992641;28;20892;-70
2022/08/11 17:36:53;;;;;;;2.47;2.27;;;27.40;66.70;;;;;;4992276;28;20466;-70
2022/08/11 17:39:23;;;;;;;2.77;2.17;;;27.30;67.20;;;;;;4992045;28;20521;-70
2022/08/11 17:50:12;;;;;;;2.20;1.90;;;27.10;68.00;;;;;;4991987;28;20836;-70
2022/08/11 18:00:55;;;;;;;1.90;1.80;;;26.90;70.50;;;;;;4991855;28;20446;-70
2022/08/11 18:03:31;;;;;;;2.53;2.33;;;26.80;70.90;;;;;;4991346;28;20490;-70
2022/08/11 18:06:01;;;;;;;1.70;1.60;;;26.80;72.80;;;;;;4991517;28;20458;-69
